Skip Navigation Links
NOAA logo - Click to go to the NOAA homepage
NOAA's National Weather Service
Alaska Aviation Weather Unit
  NWS logo - Click to go to the NWS homepage
Left Navbar Graphic     10 AKDT = 18 GMT

   
NOAA is celebrating 200 years of science, service, and stewardship. Visit the NOAA 200th celebration Web site to learn more.
USA.gov is the U.S. Government's official Web portal to all Federal, state and local government Web resources and services.
Facebook
NWS on Facebook

Important Change Regarding the AAWU Web Presence

 

Over the last several months, the AAWU has been working to navigate its webpages to a nationally supported server. Security, as well as other needs, have necessitated the change.  We have been given an extension for the site changeover while we diligently work at addressing feedback received. As of July 14, 2017, aawu.arh.noaa.gov will be discontinued. The new AAWU web address is weather.gov/aawu. It is now live and will run in-parallel with the old site until it is discontinued on July 14, 2017. Please continue to send any feedback or questions regarding the new webpages to nws.ar.aawu.webauthors@noaa.gov.  Thank you for your patience during this time of transition.
AAWU Home :: Display TAF Add Bookmark
TAF PAHO 261738Z 2618/2718  04004KT P6SM SCT050 BKN080
     FM262100 22008KT P6SM FEW050 BKN080
     FM270900 06006KT P6SM VCSH SCT030 OVC050=

4583
FTAK31 PANC 261738
TAFACV
TAF
METAR PAHO 261253Z AUTO 35003KT 10SM CLR 04/02 A2971 RMK AO2 SLP061
     T00390017 TSNO=

METAR PAHO 261353Z 00000KT 10SM OVC075 04/02 A2970 RMK AO2 SLP057
     T00440017=

METAR PAHO 261453Z 00000KT 10SM OVC075 07/03 A2969 RMK AO2 SLP054
     T00670028 56013=

METAR PAHO 261553Z 00000KT 10SM OVC080 06/03 A2968 RMK AO2 SLP051
     T00560028=

METAR PAHO 261653Z 04003KT 10SM OVC085 05/03 A2968 RMK AO2 SLP049
     T00500033=

METAR PAHO 261753Z 04003KT 10SM FEW090 08/05 A2967 RMK AO2 SLP047
     T00780050 10078 20028 56007=


NOAA's National Weather Service
Alaska Aviation Weather Unit
6930 Sand Lake Road
Anchorage, AK 99502-1845
Disclaimer
Credits
Glossary
Privacy Policy
About Us
Career Opportunities
Contact AAWU Internet Services Site last modified: April, 17th 2012